AirNav   Bose Proflight Series 2 Wireless Aviation Headset
 
 1275 users online  

FA96 Oviedo Medical Center Heliport
Oviedo, Florida, USA

GOING TO OVIEDO?


FAA INFORMATION EFFECTIVE 07 NOVEMBER 2019

Location

FAA Identifier: FA96
Lat/Long: 28-39-28.9000N 081-13-42.4000W
28-39.481667N 081-13.706667W
28.6580278,-81.2284444
(estimated)
Elevation: 32 ft. / 10 m (estimated)
From city: 1 mile SW of OVIEDO, FL
Time zone: UTC -5 (UTC -4 during Daylight Saving Time)
Zip code: 32765

Heliport Operations

Heliport use: Private use. Permission required prior to landing
Activation date: 01/2017
Control tower: no
ARTCC: JACKSONVILLE CENTER
FSS: SAINT PETERSBURG FLIGHT SERVICE STATION
Attendance: 
Wind indicator: lighted
Segmented circle: no
Beacon: white-green-yellow (heliport)

Heliport Communications

WX ASOS at SFB (7 nm N): PHONE 407-321-9384
WX ASOS at ORL (9 nm SW): PHONE 407-658-6753
WX ASOS at MCO (14 nm S): PHONE 407-855-5235

Nearby radio navigation aids

VOR radial/distance  VOR name  Freq  Var
ORLr039/8.9ORLANDO VORTAC112.2000E
OMNr189/39.2ORMOND BEACH VORTAC112.6000E

Heliport Services

Runway Information

Helipad H1

Dimensions: 33 x 33 ft. / 10 x 10 m
Surface: concrete, in excellent condition
Runway edge lights: PERI
Traffic pattern: leftleft
Markings: basic, in good condition

Heliport Ownership and Management from official FAA records

Ownership: Privately-owned
Owner: CENT FLORIDA RGNL HOSPITAL
8300 RED BUG LAKE RD
OVIEDO, FL 32765
Phone (407) 890-2273
Manager: OVIEDO MEDICAL CENTER
8300 RED BUG LAKE RD
OVIEDO, FL 32765
Phone (407) 890-2077

Additional Remarks

FOR CD CTC ORLANDO APCH AT 407-852-7553.

Instrument Procedures

There are no published instrument procedures at FA96.

Some nearby airports with instrument procedures:

KSFB - Orlando Sanford International Airport (7 nm N)
KORL - Executive Airport (9 nm SW)
KMCO - Orlando International Airport (14 nm S)
X04 - Orlando Apopka Airport (19 nm W)
X21 - Arthur Dunn Air Park (21 nm E)
 
Loc | Ops | Rwys | IFR | FBO | Links
Com | Nav | Svcs | Stats | Notes
Aerial photo
No photo
 
Airport distance calculator
Flying to Oviedo Medical Center Heliport? Find the distance to fly.

From to FA96

Sunrise and sunset
Times for 21-Nov-2019
 Local
(UTC-5)
 Zulu
(UTC)
Morning civil twilight06:2811:28
Sunrise06:5311:53
Sunset17:2822:28
Evening civil twilight17:5322:53

Current date and time
Zulu (UTC)  21-Nov-2019 14:46:42
Local (UTC-5)  21-Nov-2019 09:46:42
 
METAR
KSFB 
7nm N 
211353Z 34008KT 10SM FEW045 17/13 A3022 RMK AO2 SLP233 T01670128
KORL 
9nm SW 
211353Z 35006KT 10SM SCT042 18/12 A3023 RMK AO2 SLP239 T01780122
KMCO 
16nm S 
211353Z 36007KT 10SM SCT042 18/13 A3022 RMK AO2 SLP233 T01780128
TAF
KSFB 
7nm N 
211129Z 2112/2212 36005KT P6SM SKC FM211500 08008KT P6SM FEW040 FM220000 VRB02KT P6SM FEW250
KMCO 
16nm S 
211129Z 2112/2218 36007KT P6SM SKC FM211500 07008KT P6SM FEW040 FM220000 VRB03KT P6SM FEW250 FM221500 14005KT P6SM FEW040 SCT250
NOTAMs
Click for the latest NOTAMs
NOTAMs are issued by the DoD/FAA and will open in a separate window not controlled by AirNav.

 

 
 

Would you like to see your business listed on this page?

 If your business provides an interesting product or service to pilots, flight crews, aircraft, or users of the Oviedo Medical Center Heliport, you should consider listing it here.  To start the listing process, click on the button below
 
Add a business
 

Other Pages about Oviedo Medical Center Heliport

Update a link
 
Copyright © AirNav, LLC. All rights reserved. Privacy Policy  Contact